sensor_id;sensor_type;location;lat;lon;timestamp;temperature;humidity
46492;DHT22;32206;51.446;6.792;2023-05-07T00:01:31;16.50;99.90
46492;DHT22;32206;51.446;6.792;2023-05-07T00:03:57;16.50;99.90
46492;DHT22;32206;51.446;6.792;2023-05-07T00:06:22;16.50;99.90
46492;DHT22;32206;51.446;6.792;2023-05-07T00:08:48;16.40;99.90
46492;DHT22;32206;51.446;6.792;2023-05-07T00:11:14;16.50;99.90
46492;DHT22;32206;51.446;6.792;2023-05-07T00:13:40;16.40;99.90
46492;DHT22;32206;51.446;6.792;2023-05-07T00:16:05;16.40;99.90
46492;DHT22;32206;51.446;6.792;2023-05-07T00:18:31;16.40;99.90
46492;DHT22;32206;51.446;6.792;2023-05-07T00:20:57;16.40;99.90
46492;DHT22;32206;51.446;6.792;2023-05-07T00:23:22;16.30;99.90
46492;DHT22;32206;51.446;6.792;2023-05-07T00:25:48;16.40;99.90
46492;DHT22;32206;51.446;6.792;2023-05-07T00:28:14;16.30;99.90
46492;DHT22;32206;51.446;6.792;2023-05-07T00:30:39;16.30;99.90
46492;DHT22;32206;51.446;6.792;2023-05-07T00:33:05;16.30;99.90
46492;DHT22;32206;51.446;6.792;2023-05-07T00:35:31;16.30;99.90
46492;DHT22;32206;51.446;6.792;2023-05-07T00:37:57;16.30;99.90
46492;DHT22;32206;51.446;6.792;2023-05-07T00:40:22;16.30;99.90
46492;DHT22;32206;51.446;6.792;2023-05-07T00:42:48;16.30;99.90
46492;DHT22;32206;51.446;6.792;2023-05-07T00:45:14;16.20;99.90
46492;DHT22;32206;51.446;6.792;2023-05-07T00:47:40;16.20;99.90
46492;DHT22;32206;51.446;6.792;2023-05-07T00:50:07;16.20;99.90
46492;DHT22;32206;51.446;6.792;2023-05-07T00:52:33;16.20;99.90
46492;DHT22;32206;51.446;6.792;2023-05-07T00:58:58;16.20;99.90
46492;DHT22;32206;51.446;6.792;2023-05-07T01:01:23;16.10;99.90
46492;DHT22;32206;51.446;6.792;2023-05-07T01:03:49;16.10;99.90
46492;DHT22;32206;51.446;6.792;2023-05-07T01:06:15;16.10;99.90
46492;DHT22;32206;51.446;6.792;2023-05-07T01:08:42;16.00;99.90
46492;DHT22;32206;51.446;6.792;2023-05-07T01:11:09;16.00;99.90
46492;DHT22;32206;51.446;6.792;2023-05-07T01:13:35;16.00;99.90
46492;DHT22;32206;51.446;6.792;2023-05-07T01:16:02;16.00;99.90
46492;DHT22;32206;51.446;6.792;2023-05-07T01:18:28;16.00;99.90
46492;DHT22;32206;51.446;6.792;2023-05-07T01:20:57;16.00;99.90
46492;DHT22;32206;51.446;6.792;2023-05-07T01:23:23;16.00;99.90
46492;DHT22;32206;51.446;6.792;2023-05-07T01:25:53;16.00;99.90
46492;DHT22;32206;51.446;6.792;2023-05-07T01:28:19;15.70;99.90
46492;DHT22;32206;51.446;6.792;2023-05-07T01:30:49;16.00;99.90
46492;DHT22;32206;51.446;6.792;2023-05-07T01:33:19;15.90;99.90
46492;DHT22;32206;51.446;6.792;2023-05-07T01:35:49;15.90;99.90
46492;DHT22;32206;51.446;6.792;2023-05-07T01:38:16;15.90;99.90
46492;DHT22;32206;51.446;6.792;2023-05-07T01:40:43;15.90;99.90
46492;DHT22;32206;51.446;6.792;2023-05-07T01:43:09;15.90;99.90
46492;DHT22;32206;51.446;6.792;2023-05-07T01:45:36;15.80;99.90
46492;DHT22;32206;51.446;6.792;2023-05-07T01:48:02;15.80;99.90
46492;DHT22;32206;51.446;6.792;2023-05-07T01:50:29;15.80;99.90
46492;DHT22;32206;51.446;6.792;2023-05-07T01:52:56;15.80;99.90
46492;DHT22;32206;51.446;6.792;2023-05-07T01:55:21;15.80;99.90
46492;DHT22;32206;51.446;6.792;2023-05-07T01:57:47;15.80;99.90
46492;DHT22;32206;51.446;6.792;2023-05-07T02:00:13;15.80;99.90
46492;DHT22;32206;51.446;6.792;2023-05-07T02:02:39;15.80;99.90
46492;DHT22;32206;51.446;6.792;2023-05-07T02:05:05;15.80;99.90
46492;DHT22;32206;51.446;6.792;2023-05-07T02:10:53;15.70;99.90
46492;DHT22;32206;51.446;6.792;2023-05-07T02:13:19;15.70;99.90
46492;DHT22;32206;51.446;6.792;2023-05-07T02:15:45;15.70;99.90
46492;DHT22;32206;51.446;6.792;2023-05-07T02:18:15;15.60;99.90
46492;DHT22;32206;51.446;6.792;2023-05-07T02:20:41;15.60;99.90
46492;DHT22;32206;51.446;6.792;2023-05-07T02:23:06;15.60;99.90
46492;DHT22;32206;51.446;6.792;2023-05-07T02:25:32;15.70;99.90
46492;DHT22;32206;51.446;6.792;2023-05-07T02:27:58;15.60;99.90
46492;DHT22;32206;51.446;6.792;2023-05-07T02:30:24;15.60;99.90
46492;DHT22;32206;51.446;6.792;2023-05-07T02:32:50;15.60;99.90
46492;DHT22;32206;51.446;6.792;2023-05-07T02:35:16;15.50;99.90
46492;DHT22;32206;51.446;6.792;2023-05-07T02:37:42;15.50;99.90
46492;DHT22;32206;51.446;6.792;2023-05-07T02:40:08;15.50;99.90
46492;DHT22;32206;51.446;6.792;2023-05-07T02:42:33;15.50;99.90
46492;DHT22;32206;51.446;6.792;2023-05-07T02:44:59;15.50;99.90
46492;DHT22;32206;51.446;6.792;2023-05-07T02:47:25;15.40;99.90
46492;DHT22;32206;51.446;6.792;2023-05-07T02:49:54;15.50;99.90
46492;DHT22;32206;51.446;6.792;2023-05-07T02:52:20;15.40;99.90
46492;DHT22;32206;51.446;6.792;2023-05-07T02:54:46;15.40;99.90
46492;DHT22;32206;51.446;6.792;2023-05-07T02:57:12;15.40;99.90
46492;DHT22;32206;51.446;6.792;2023-05-07T02:59:37;15.40;99.90
46492;DHT22;32206;51.446;6.792;2023-05-07T03:02:03;15.40;99.90
46492;DHT22;32206;51.446;6.792;2023-05-07T03:04:29;15.40;99.90
46492;DHT22;32206;51.446;6.792;2023-05-07T03:06:54;15.40;99.90
46492;DHT22;32206;51.446;6.792;2023-05-07T03:09:20;15.40;99.90
46492;DHT22;32206;51.446;6.792;2023-05-07T03:11:46;15.40;99.90
46492;DHT22;32206;51.446;6.792;2023-05-07T03:14:12;15.40;99.90
46492;DHT22;32206;51.446;6.792;2023-05-07T03:16:38;15.40;99.90
46492;DHT22;32206;51.446;6.792;2023-05-07T03:22:25;15.40;99.90
46492;DHT22;32206;51.446;6.792;2023-05-07T03:24:51;15.30;99.90
46492;DHT22;32206;51.446;6.792;2023-05-07T03:27:17;15.30;99.90
46492;DHT22;32206;51.446;6.792;2023-05-07T03:29:42;15.30;99.90
46492;DHT22;32206;51.446;6.792;2023-05-07T03:32:08;15.30;99.90
46492;DHT22;32206;51.446;6.792;2023-05-07T03:34:33;15.30;99.90
46492;DHT22;32206;51.446;6.792;2023-05-07T03:37:00;15.30;99.90
46492;DHT22;32206;51.446;6.792;2023-05-07T03:39:26;15.30;99.90
46492;DHT22;32206;51.446;6.792;2023-05-07T03:41:51;15.30;99.90
46492;DHT22;32206;51.446;6.792;2023-05-07T03:44:17;15.30;99.90
46492;DHT22;32206;51.446;6.792;2023-05-07T03:46:42;15.30;99.90
46492;DHT22;32206;51.446;6.792;2023-05-07T03:49:08;15.30;99.90
46492;DHT22;32206;51.446;6.792;2023-05-07T03:51:34;15.30;99.90
46492;DHT22;32206;51.446;6.792;2023-05-07T03:54:01;15.20;99.90
46492;DHT22;32206;51.446;6.792;2023-05-07T03:56:27;15.20;99.90
46492;DHT22;32206;51.446;6.792;2023-05-07T03:58:53;15.20;99.90
46492;DHT22;32206;51.446;6.792;2023-05-07T04:01:19;15.20;99.90
46492;DHT22;32206;51.446;6.792;2023-05-07T04:03:45;15.20;99.90
46492;DHT22;32206;51.446;6.792;2023-05-07T04:06:10;15.20;99.90
46492;DHT22;32206;51.446;6.792;2023-05-07T04:08:37;15.20;99.90
46492;DHT22;32206;51.446;6.792;2023-05-07T04:11:03;15.20;99.90
46492;DHT22;32206;51.446;6.792;2023-05-07T04:13:29;15.20;99.90
46492;DHT22;32206;51.446;6.792;2023-05-07T04:15:55;15.20;99.90
46492;DHT22;32206;51.446;6.792;2023-05-07T04:18:21;15.10;99.90
46492;DHT22;32206;51.446;6.792;2023-05-07T04:20:49;15.10;99.90
46492;DHT22;32206;51.446;6.792;2023-05-07T04:23:15;15.10;99.90
46492;DHT22;32206;51.446;6.792;2023-05-07T04:25:41;15.10;99.90
46492;DHT22;32206;51.446;6.792;2023-05-07T04:28:07;15.10;99.90
46492;DHT22;32206;51.446;6.792;2023-05-07T04:30:32;15.10;99.90
46492;DHT22;32206;51.446;6.792;2023-05-07T04:32:58;15.10;99.90
46492;DHT22;32206;51.446;6.792;2023-05-07T04:35:23;15.10;99.90
46492;DHT22;32206;51.446;6.792;2023-05-07T04:37:49;15.10;99.90
46492;DHT22;32206;51.446;6.792;2023-05-07T04:40:15;15.10;99.90
46492;DHT22;32206;51.446;6.792;2023-05-07T04:42:41;15.10;99.90
46492;DHT22;32206;51.446;6.792;2023-05-07T04:45:07;15.10;99.90
46492;DHT22;32206;51.446;6.792;2023-05-07T04:47:34;15.10;99.90
46492;DHT22;32206;51.446;6.792;2023-05-07T04:49:59;15.10;99.90
46492;DHT22;32206;51.446;6.792;2023-05-07T04:52:25;15.10;99.90
46492;DHT22;32206;51.446;6.792;2023-05-07T04:54:51;15.20;99.90
46492;DHT22;32206;51.446;6.792;2023-05-07T04:57:16;15.20;99.90
46492;DHT22;32206;51.446;6.792;2023-05-07T04:59:43;15.20;99.90
46492;DHT22;32206;51.446;6.792;2023-05-07T05:02:10;15.20;99.90
46492;DHT22;32206;51.446;6.792;2023-05-07T05:04:36;15.20;99.90
46492;DHT22;32206;51.446;6.792;2023-05-07T05:07:02;15.20;99.90
46492;DHT22;32206;51.446;6.792;2023-05-07T05:09:29;15.30;99.90
46492;DHT22;32206;51.446;6.792;2023-05-07T05:11:55;15.30;99.90
46492;DHT22;32206;51.446;6.792;2023-05-07T05:14:21;15.30;99.90
46492;DHT22;32206;51.446;6.792;2023-05-07T05:16:46;15.30;99.90
46492;DHT22;32206;51.446;6.792;2023-05-07T05:19:12;15.30;99.90
46492;DHT22;32206;51.446;6.792;2023-05-07T05:21:37;15.30;99.90
46492;DHT22;32206;51.446;6.792;2023-05-07T05:24:03;15.40;99.90
46492;DHT22;32206;51.446;6.792;2023-05-07T05:26:29;15.40;99.90
46492;DHT22;32206;51.446;6.792;2023-05-07T05:28:54;15.40;99.90
46492;DHT22;32206;51.446;6.792;2023-05-07T05:31:20;15.50;99.90
46492;DHT22;32206;51.446;6.792;2023-05-07T05:33:46;15.50;99.90
46492;DHT22;32206;51.446;6.792;2023-05-07T05:36:12;15.50;99.90
46492;DHT22;32206;51.446;6.792;2023-05-07T05:38:39;15.50;99.90
46492;DHT22;32206;51.446;6.792;2023-05-07T05:41:04;15.70;99.90
46492;DHT22;32206;51.446;6.792;2023-05-07T05:43:30;15.60;99.90
46492;DHT22;32206;51.446;6.792;2023-05-07T05:45:56;15.60;99.90
46492;DHT22;32206;51.446;6.792;2023-05-07T05:48:22;15.60;99.90
46492;DHT22;32206;51.446;6.792;2023-05-07T05:50:48;15.60;99.90
46492;DHT22;32206;51.446;6.792;2023-05-07T05:53:14;15.70;99.90
46492;DHT22;32206;51.446;6.792;2023-05-07T05:55:39;15.70;99.90
46492;DHT22;32206;51.446;6.792;2023-05-07T05:58:05;15.70;99.90
46492;DHT22;32206;51.446;6.792;2023-05-07T06:00:31;15.80;99.90
46492;DHT22;32206;51.446;6.792;2023-05-07T06:02:57;15.80;99.90
46492;DHT22;32206;51.446;6.792;2023-05-07T06:05:22;15.90;99.90
46492;DHT22;32206;51.446;6.792;2023-05-07T06:07:48;16.00;99.90
46492;DHT22;32206;51.446;6.792;2023-05-07T06:10:14;16.10;99.90
46492;DHT22;32206;51.446;6.792;2023-05-07T06:12:39;16.20;99.90
46492;DHT22;32206;51.446;6.792;2023-05-07T06:15:06;16.20;99.90
46492;DHT22;32206;51.446;6.792;2023-05-07T06:17:31;16.30;99.90
46492;DHT22;32206;51.446;6.792;2023-05-07T06:19:57;16.30;99.90
46492;DHT22;32206;51.446;6.792;2023-05-07T06:22:23;16.30;99.90
46492;DHT22;32206;51.446;6.792;2023-05-07T06:24:48;16.40;99.90
46492;DHT22;32206;51.446;6.792;2023-05-07T06:27:14;16.40;99.90
46492;DHT22;32206;51.446;6.792;2023-05-07T06:29:39;16.40;99.90
46492;DHT22;32206;51.446;6.792;2023-05-07T06:32:09;16.50;99.90
46492;DHT22;32206;51.446;6.792;2023-05-07T06:34:36;16.50;99.90
46492;DHT22;32206;51.446;6.792;2023-05-07T06:37:02;16.50;99.90
46492;DHT22;32206;51.446;6.792;2023-05-07T06:39:28;16.50;99.90
46492;DHT22;32206;51.446;6.792;2023-05-07T06:41:54;16.60;99.90
46492;DHT22;32206;51.446;6.792;2023-05-07T06:44:19;16.60;99.90
46492;DHT22;32206;51.446;6.792;2023-05-07T06:46:45;16.60;99.90
46492;DHT22;32206;51.446;6.792;2023-05-07T06:49:13;16.70;99.90
46492;DHT22;32206;51.446;6.792;2023-05-07T06:51:38;16.80;99.90
46492;DHT22;32206;51.446;6.792;2023-05-07T06:54:04;16.80;99.90
46492;DHT22;32206;51.446;6.792;2023-05-07T06:56:33;16.90;99.90
46492;DHT22;32206;51.446;6.792;2023-05-07T06:59:00;16.90;99.90
46492;DHT22;32206;51.446;6.792;2023-05-07T07:01:26;16.90;99.90
46492;DHT22;32206;51.446;6.792;2023-05-07T07:03:52;16.90;99.90
46492;DHT22;32206;51.446;6.792;2023-05-07T07:06:17;17.00;99.90
46492;DHT22;32206;51.446;6.792;2023-05-07T07:08:43;17.10;99.90
46492;DHT22;32206;51.446;6.792;2023-05-07T07:11:10;17.10;99.90
46492;DHT22;32206;51.446;6.792;2023-05-07T07:13:36;17.20;99.90
46492;DHT22;32206;51.446;6.792;2023-05-07T07:16:01;17.20;99.90
46492;DHT22;32206;51.446;6.792;2023-05-07T07:18:27;17.30;99.70
46492;DHT22;32206;51.446;6.792;2023-05-07T07:20:53;17.30;97.50
46492;DHT22;32206;51.446;6.792;2023-05-07T07:23:19;17.40;95.80
46492;DHT22;32206;51.446;6.792;2023-05-07T07:25:45;17.40;94.80
46492;DHT22;32206;51.446;6.792;2023-05-07T07:28:10;17.50;94.50
46492;DHT22;32206;51.446;6.792;2023-05-07T07:30:37;17.60;90.80
46492;DHT22;32206;51.446;6.792;2023-05-07T07:33:02;17.70;88.80
46492;DHT22;32206;51.446;6.792;2023-05-07T07:35:37;17.50;89.80
46492;DHT22;32206;51.446;6.792;2023-05-07T07:38:03;17.70;88.10
46492;DHT22;32206;51.446;6.792;2023-05-07T07:40:29;17.80;81.90
46492;DHT22;32206;51.446;6.792;2023-05-07T07:42:56;17.90;80.40
46492;DHT22;32206;51.446;6.792;2023-05-07T07:45:22;18.00;77.30
46492;DHT22;32206;51.446;6.792;2023-05-07T07:47:47;18.00;67.80
46492;DHT22;32206;51.446;6.792;2023-05-07T07:50:13;18.10;64.10
46492;DHT22;32206;51.446;6.792;2023-05-07T07:52:39;18.20;67.70
46492;DHT22;32206;51.446;6.792;2023-05-07T07:55:05;18.20;61.70
46492;DHT22;32206;51.446;6.792;2023-05-07T07:57:31;18.30;58.30
46492;DHT22;32206;51.446;6.792;2023-05-07T07:59:56;18.50;54.90
46492;DHT22;32206;51.446;6.792;2023-05-07T08:02:22;18.60;42.50
46492;DHT22;32206;51.446;6.792;2023-05-07T08:04:48;18.80;43.50
46492;DHT22;32206;51.446;6.792;2023-05-07T08:07:13;18.90;41.50
46492;DHT22;32206;51.446;6.792;2023-05-07T08:09:40;19.00;39.10
46492;DHT22;32206;51.446;6.792;2023-05-07T08:12:06;19.10;29.30
46492;DHT22;32206;51.446;6.792;2023-05-07T08:14:32;19.10;31.50
46492;DHT22;32206;51.446;6.792;2023-05-07T08:16:58;19.10;27.10
46492;DHT22;32206;51.446;6.792;2023-05-07T08:19:24;19.20;15.80
46492;DHT22;32206;51.446;6.792;2023-05-07T08:21:50;19.30;1.00
46492;DHT22;32206;51.446;6.792;2023-05-07T08:24:16;19.40;1.00
46492;DHT22;32206;51.446;6.792;2023-05-07T08:26:42;19.50;5.00
46492;DHT22;32206;51.446;6.792;2023-05-07T08:29:08;19.60;5.20
46492;DHT22;32206;51.446;6.792;2023-05-07T08:31:34;19.60;1.00
46492;DHT22;32206;51.446;6.792;2023-05-07T08:33:59;19.60;1.00
46492;DHT22;32206;51.446;6.792;2023-05-07T08:36:25;19.60;1.00
46492;DHT22;32206;51.446;6.792;2023-05-07T08:38:52;19.60;1.00
46492;DHT22;32206;51.446;6.792;2023-05-07T08:41:18;19.70;1.00
46492;DHT22;32206;51.446;6.792;2023-05-07T08:43:50;19.80;1.00
46492;DHT22;32206;51.446;6.792;2023-05-07T08:46:21;19.90;1.00
46492;DHT22;32206;51.446;6.792;2023-05-07T08:48:50;19.90;1.00
46492;DHT22;32206;51.446;6.792;2023-05-07T08:51:18;20.10;1.00
46492;DHT22;32206;51.446;6.792;2023-05-07T08:53:46;20.30;1.00
46492;DHT22;32206;51.446;6.792;2023-05-07T08:59:35;20.50;1.00
46492;DHT22;32206;51.446;6.792;2023-05-07T09:02:02;20.60;1.00
46492;DHT22;32206;51.446;6.792;2023-05-07T09:04:27;20.70;1.00
46492;DHT22;32206;51.446;6.792;2023-05-07T09:06:53;20.70;1.00
46492;DHT22;32206;51.446;6.792;2023-05-07T09:09:19;20.80;1.00
46492;DHT22;32206;51.446;6.792;2023-05-07T09:11:46;20.90;1.00
46492;DHT22;32206;51.446;6.792;2023-05-07T09:14:12;21.00;1.00
46492;DHT22;32206;51.446;6.792;2023-05-07T09:16:38;21.10;99.90
46492;DHT22;32206;51.446;6.792;2023-05-07T09:19:04;21.20;99.90
46492;DHT22;32206;51.446;6.792;2023-05-07T09:21:29;21.30;99.90
46492;DHT22;32206;51.446;6.792;2023-05-07T09:27:48;21.50;99.90
46492;DHT22;32206;51.446;6.792;2023-05-07T09:30:14;21.60;1.00
46492;DHT22;32206;51.446;6.792;2023-05-07T09:32:40;21.80;99.90
46492;DHT22;32206;51.446;6.792;2023-05-07T09:41:49;22.30;92.50
46492;DHT22;32206;51.446;6.792;2023-05-07T09:44:16;22.40;99.90
46492;DHT22;32206;51.446;6.792;2023-05-07T09:46:43;22.40;99.90
46492;DHT22;32206;51.446;6.792;2023-05-07T10:03:06;22.80;99.90
46492;DHT22;32206;51.446;6.792;2023-05-07T10:05:33;22.90;1.00
46492;DHT22;32206;51.446;6.792;2023-05-07T10:07:59;22.90;99.90
46492;DHT22;32206;51.446;6.792;2023-05-07T10:10:27;22.90;1.00
46492;DHT22;32206;51.446;6.792;2023-05-07T10:12:54;23.00;1.00
46492;DHT22;32206;51.446;6.792;2023-05-07T10:15:21;23.10;1.00
46492;DHT22;32206;51.446;6.792;2023-05-07T10:17:46;23.20;1.00
46492;DHT22;32206;51.446;6.792;2023-05-07T10:20:13;23.20;1.00
46492;DHT22;32206;51.446;6.792;2023-05-07T10:22:43;23.30;1.00
46492;DHT22;32206;51.446;6.792;2023-05-07T10:25:18;23.50;1.00
46492;DHT22;32206;51.446;6.792;2023-05-07T10:27:48;23.60;1.00
46492;DHT22;32206;51.446;6.792;2023-05-07T10:32:52;23.70;43.10
46492;DHT22;32206;51.446;6.792;2023-05-07T10:35:24;23.70;99.90
46492;DHT22;32206;51.446;6.792;2023-05-07T10:37:51;23.60;99.90
46492;DHT22;32206;51.446;6.792;2023-05-07T10:40:18;23.60;6.50
46492;DHT22;32206;51.446;6.792;2023-05-07T10:42:59;23.60;99.90
46492;DHT22;32206;51.446;6.792;2023-05-07T10:45:26;23.60;99.90
46492;DHT22;32206;51.446;6.792;2023-05-07T10:48:15;23.70;1.00
46492;DHT22;32206;51.446;6.792;2023-05-07T10:50:45;23.70;25.40
46492;DHT22;32206;51.446;6.792;2023-05-07T10:55:44;23.80;99.90
46492;DHT22;32206;51.446;6.792;2023-05-07T10:58:25;23.80;7.60
46492;DHT22;32206;51.446;6.792;2023-05-07T11:00:56;23.70;99.90
46492;DHT22;32206;51.446;6.792;2023-05-07T11:03:22;23.70;99.90
46492;DHT22;32206;51.446;6.792;2023-05-07T11:06:12;23.70;1.00
46492;DHT22;32206;51.446;6.792;2023-05-07T11:08:57;23.70;99.90
46492;DHT22;32206;51.446;6.792;2023-05-07T11:11:49;23.70;99.90
46492;DHT22;32206;51.446;6.792;2023-05-07T11:17:06;23.70;99.90
46492;DHT22;32206;51.446;6.792;2023-05-07T11:19:51;23.70;99.90
46492;DHT22;32206;51.446;6.792;2023-05-07T11:25:05;23.80;99.90
46492;DHT22;32206;51.446;6.792;2023-05-07T11:27:32;23.70;1.00
46492;DHT22;32206;51.446;6.792;2023-05-07T11:29:58;23.70;99.90
46492;DHT22;32206;51.446;6.792;2023-05-07T11:32:27;23.60;99.90
46492;DHT22;32206;51.446;6.792;2023-05-07T11:41:37;23.50;1.00
46492;DHT22;32206;51.446;6.792;2023-05-07T11:44:03;23.60;99.90
46492;DHT22;32206;51.446;6.792;2023-05-07T11:46:29;23.70;99.90
46492;DHT22;32206;51.446;6.792;2023-05-07T11:48:56;23.70;99.90
46492;DHT22;32206;51.446;6.792;2023-05-07T11:51:24;23.70;1.00
46492;DHT22;32206;51.446;6.792;2023-05-07T11:53:51;23.70;1.00
46492;DHT22;32206;51.446;6.792;2023-05-07T11:56:18;23.80;99.90
46492;DHT22;32206;51.446;6.792;2023-05-07T11:58:45;23.70;1.00
46492;DHT22;32206;51.446;6.792;2023-05-07T12:01:12;23.70;99.90
46492;DHT22;32206;51.446;6.792;2023-05-07T12:03:40;23.70;99.90
46492;DHT22;32206;51.446;6.792;2023-05-07T12:06:10;23.70;1.00
46492;DHT22;32206;51.446;6.792;2023-05-07T12:08:38;23.60;1.00
46492;DHT22;32206;51.446;6.792;2023-05-07T12:11:07;23.60;3.70
46492;DHT22;32206;51.446;6.792;2023-05-07T12:13:34;23.60;1.00
46492;DHT22;32206;51.446;6.792;2023-05-07T12:15:59;23.50;99.90
46492;DHT22;32206;51.446;6.792;2023-05-07T12:18:28;23.40;99.90
46492;DHT22;32206;51.446;6.792;2023-05-07T12:20:55;23.30;99.90
46492;DHT22;32206;51.446;6.792;2023-05-07T12:23:21;23.30;99.90
46492;DHT22;32206;51.446;6.792;2023-05-07T12:25:47;23.30;99.90
46492;DHT22;32206;51.446;6.792;2023-05-07T12:28:16;23.20;99.90
46492;DHT22;32206;51.446;6.792;2023-05-07T12:30:43;23.20;99.90
46492;DHT22;32206;51.446;6.792;2023-05-07T12:33:09;23.10;52.70
46492;DHT22;32206;51.446;6.792;2023-05-07T12:35:40;23.10;1.00
46492;DHT22;32206;51.446;6.792;2023-05-07T12:38:13;23.10;16.30
46492;DHT22;32206;51.446;6.792;2023-05-07T12:43:05;23.10;1.00
46492;DHT22;32206;51.446;6.792;2023-05-07T12:45:31;23.00;96.00
46492;DHT22;32206;51.446;6.792;2023-05-07T12:48:01;23.00;99.90
46492;DHT22;32206;51.446;6.792;2023-05-07T12:50:31;23.10;1.00
46492;DHT22;32206;51.446;6.792;2023-05-07T12:52:58;22.90;99.90
46492;DHT22;32206;51.446;6.792;2023-05-07T12:55:24;22.90;99.90
46492;DHT22;32206;51.446;6.792;2023-05-07T12:57:50;22.90;1.00
46492;DHT22;32206;51.446;6.792;2023-05-07T13:00:17;22.90;91.40
46492;DHT22;32206;51.446;6.792;2023-05-07T13:02:43;22.90;1.00
46492;DHT22;32206;51.446;6.792;2023-05-07T13:05:12;22.80;99.90
46492;DHT22;32206;51.446;6.792;2023-05-07T13:07:38;22.80;99.90
46492;DHT22;32206;51.446;6.792;2023-05-07T13:10:04;22.80;99.90
46492;DHT22;32206;51.446;6.792;2023-05-07T13:12:30;22.70;99.90
46492;DHT22;32206;51.446;6.792;2023-05-07T13:14:56;22.80;99.90
46492;DHT22;32206;51.446;6.792;2023-05-07T13:17:22;22.70;99.90
46492;DHT22;32206;51.446;6.792;2023-05-07T13:19:47;22.70;99.90
46492;DHT22;32206;51.446;6.792;2023-05-07T13:22:13;22.60;1.00
46492;DHT22;32206;51.446;6.792;2023-05-07T13:24:38;22.50;99.90
46492;DHT22;32206;51.446;6.792;2023-05-07T13:27:07;22.50;99.90
46492;DHT22;32206;51.446;6.792;2023-05-07T13:29:32;22.50;1.00
46492;DHT22;32206;51.446;6.792;2023-05-07T13:31:58;22.40;1.00
46492;DHT22;32206;51.446;6.792;2023-05-07T13:34:24;22.30;99.90
46492;DHT22;32206;51.446;6.792;2023-05-07T13:36:50;22.10;1.00
46492;DHT22;32206;51.446;6.792;2023-05-07T13:39:16;22.00;17.70
46492;DHT22;32206;51.446;6.792;2023-05-07T13:41:42;21.80;99.90
46492;DHT22;32206;51.446;6.792;2023-05-07T13:44:07;21.70;99.90
46492;DHT22;32206;51.446;6.792;2023-05-07T13:46:33;21.70;99.90
46492;DHT22;32206;51.446;6.792;2023-05-07T13:48:58;21.50;99.90
46492;DHT22;32206;51.446;6.792;2023-05-07T13:51:25;21.40;99.90
46492;DHT22;32206;51.446;6.792;2023-05-07T13:53:51;21.10;1.00
46492;DHT22;32206;51.446;6.792;2023-05-07T13:59:40;21.00;1.00
46492;DHT22;32206;51.446;6.792;2023-05-07T14:02:06;20.90;1.00
46492;DHT22;32206;51.446;6.792;2023-05-07T14:04:31;20.80;1.00
46492;DHT22;32206;51.446;6.792;2023-05-07T14:06:57;20.80;1.00
46492;DHT22;32206;51.446;6.792;2023-05-07T14:09:23;20.80;1.00
46492;DHT22;32206;51.446;6.792;2023-05-07T14:11:49;20.70;1.00
46492;DHT22;32206;51.446;6.792;2023-05-07T14:14:17;20.70;1.00
46492;DHT22;32206;51.446;6.792;2023-05-07T14:16:44;20.70;1.00
46492;DHT22;32206;51.446;6.792;2023-05-07T14:19:10;20.70;1.00
46492;DHT22;32206;51.446;6.792;2023-05-07T14:21:36;20.70;1.00
46492;DHT22;32206;51.446;6.792;2023-05-07T14:24:01;20.60;1.00
46492;DHT22;32206;51.446;6.792;2023-05-07T14:26:27;20.50;1.00
46492;DHT22;32206;51.446;6.792;2023-05-07T14:28:53;20.50;1.00
46492;DHT22;32206;51.446;6.792;2023-05-07T14:31:20;20.40;2.10
46492;DHT22;32206;51.446;6.792;2023-05-07T14:33:46;20.40;11.30
46492;DHT22;32206;51.446;6.792;2023-05-07T14:36:12;20.40;9.30
46492;DHT22;32206;51.446;6.792;2023-05-07T14:38:37;20.40;13.60
46492;DHT22;32206;51.446;6.792;2023-05-07T14:41:03;20.40;21.80
46492;DHT22;32206;51.446;6.792;2023-05-07T14:43:29;20.40;18.20
46492;DHT22;32206;51.446;6.792;2023-05-07T14:45:55;20.30;13.80
46492;DHT22;32206;51.446;6.792;2023-05-07T14:48:20;20.20;23.00
46492;DHT22;32206;51.446;6.792;2023-05-07T14:50:49;20.20;33.40
46492;DHT22;32206;51.446;6.792;2023-05-07T14:53:15;20.10;46.80
46492;DHT22;32206;51.446;6.792;2023-05-07T14:55:41;20.00;61.20
46492;DHT22;32206;51.446;6.792;2023-05-07T14:58:07;19.90;74.40
46492;DHT22;32206;51.446;6.792;2023-05-07T15:00:33;19.90;84.40
46492;DHT22;32206;51.446;6.792;2023-05-07T15:03:06;19.80;92.20
46492;DHT22;32206;51.446;6.792;2023-05-07T15:05:32;19.70;93.00
46492;DHT22;32206;51.446;6.792;2023-05-07T15:07:58;19.70;95.40
46492;DHT22;32206;51.446;6.792;2023-05-07T15:10:24;19.60;99.30
46492;DHT22;32206;51.446;6.792;2023-05-07T15:12:49;19.50;99.90
46492;DHT22;32206;51.446;6.792;2023-05-07T15:15:15;19.50;99.90
46492;DHT22;32206;51.446;6.792;2023-05-07T15:17:41;19.40;99.90
46492;DHT22;32206;51.446;6.792;2023-05-07T15:20:07;19.40;99.90
46492;DHT22;32206;51.446;6.792;2023-05-07T15:22:33;19.30;99.90
46492;DHT22;32206;51.446;6.792;2023-05-07T15:24:59;19.30;99.90
46492;DHT22;32206;51.446;6.792;2023-05-07T15:27:25;19.30;99.90
46492;DHT22;32206;51.446;6.792;2023-05-07T15:29:51;19.20;99.90
46492;DHT22;32206;51.446;6.792;2023-05-07T15:32:17;19.20;99.90
46492;DHT22;32206;51.446;6.792;2023-05-07T15:34:43;19.10;99.90
46492;DHT22;32206;51.446;6.792;2023-05-07T15:37:08;19.10;99.90
46492;DHT22;32206;51.446;6.792;2023-05-07T15:39:34;19.20;99.90
46492;DHT22;32206;51.446;6.792;2023-05-07T15:41:59;19.10;99.90
46492;DHT22;32206;51.446;6.792;2023-05-07T15:44:26;19.20;99.90
46492;DHT22;32206;51.446;6.792;2023-05-07T15:46:54;19.20;99.90
46492;DHT22;32206;51.446;6.792;2023-05-07T15:49:19;19.30;99.90
46492;DHT22;32206;51.446;6.792;2023-05-07T15:51:45;19.40;99.90
46492;DHT22;32206;51.446;6.792;2023-05-07T15:54:10;19.40;99.90
46492;DHT22;32206;51.446;6.792;2023-05-07T15:56:36;19.40;99.90
46492;DHT22;32206;51.446;6.792;2023-05-07T15:59:02;19.50;99.90
46492;DHT22;32206;51.446;6.792;2023-05-07T16:01:28;19.50;99.90
46492;DHT22;32206;51.446;6.792;2023-05-07T16:03:54;19.50;99.90
46492;DHT22;32206;51.446;6.792;2023-05-07T16:06:20;19.50;99.90
46492;DHT22;32206;51.446;6.792;2023-05-07T16:08:46;19.60;99.90
46492;DHT22;32206;51.446;6.792;2023-05-07T16:11:11;19.60;99.90
46492;DHT22;32206;51.446;6.792;2023-05-07T16:13:37;19.60;99.90
46492;DHT22;32206;51.446;6.792;2023-05-07T16:16:03;19.60;99.90
46492;DHT22;32206;51.446;6.792;2023-05-07T16:18:29;19.70;99.90
46492;DHT22;32206;51.446;6.792;2023-05-07T16:20:55;19.70;99.90
46492;DHT22;32206;51.446;6.792;2023-05-07T16:23:20;19.60;99.90
46492;DHT22;32206;51.446;6.792;2023-05-07T16:25:47;19.60;99.90
46492;DHT22;32206;51.446;6.792;2023-05-07T16:28:13;19.60;99.90
46492;DHT22;32206;51.446;6.792;2023-05-07T16:30:39;19.60;99.90